Frye, Maine
Current Conditions -  °F | °C
As of 3:52 PM on Friday 24 Oct 2014 (Local Time) from KBML Reporting Station
Overcast Overcast  
Wind Chill: 41°   Ceiling: 1500
Heat Index: 44°   Visibility: 10mi
Dew Point: 41°   Wind: 6mph
Humidity: 89%   Direction: 320°NW
Pressure: 29.72"   Gusts: NA
Location:  44.7286°N, 70.6272°W
Report Text: KBML 241952Z AUTO 32005KT 10SM OVC015 07/05 A2972 RMK AO2 SLP072 T00670050
Loading
Personal Weather Stations






























Interactive Weather Map
Tropical Storm Tracking
New forecast layout! Learn more

10-Day Weather Forecast

Advertisements
Track Severe Weather on mobile